createdAt,value
2023-05-16T00:01:23.387Z,98263.48
2023-05-16T00:04:35.608Z,98267.30
2023-05-16T00:07:50.704Z,98265.97
2023-05-16T00:11:02.722Z,98252.66
2023-05-16T00:14:27.204Z,98261.30
2023-05-16T00:17:41.059Z,98266.80
2023-05-16T00:20:54.224Z,98278.61
2023-05-16T00:24:06.309Z,98279.63
2023-05-16T00:27:18.459Z,98285.63
2023-05-16T00:30:33.124Z,98283.76
2023-05-16T00:48:59.660Z,98288.59
2023-05-16T00:52:13.162Z,98290.28
2023-05-16T01:04:26.475Z,98311.04
2023-05-16T01:07:45.982Z,98296.56
2023-05-16T01:11:05.672Z,98292.55
2023-05-16T01:14:24.837Z,98300.84
2023-05-16T01:17:43.352Z,98292.83
2023-05-16T01:21:03.514Z,98295.56
2023-05-16T01:24:28.113Z,98304.66
2023-05-16T01:27:41.968Z,98312.92
2023-05-16T01:30:55.287Z,98308.23
2023-05-16T01:40:17.076Z,98303.50
2023-05-16T01:49:35.317Z,98308.09
2023-05-16T01:52:53.855Z,98300.96
2023-05-16T01:56:09.118Z,98286.44
2023-05-16T02:24:08.292Z,98303.11
2023-05-16T02:48:56.154Z,98307.08
2023-05-16T02:52:08.702Z,98315.72
2023-05-16T02:55:22.441Z,98314.75
2023-05-16T02:58:35.197Z,98323.69
2023-05-16T03:01:47.437Z,98332.64
2023-05-16T03:04:59.716Z,98338.76
2023-05-16T03:08:12.960Z,98332.89
2023-05-16T03:14:25.420Z,98322.80
2023-05-16T03:26:38.109Z,98312.63
2023-05-16T04:07:22.554Z,98346.17
2023-05-16T04:10:35.412Z,98338.20
2023-05-16T04:13:47.514Z,98342.90
2023-05-16T04:16:59.931Z,98351.73
2023-05-16T05:00:52.885Z,98376.20
2023-05-16T05:04:05.896Z,98368.22
2023-05-16T05:16:18.309Z,98374.23
2023-05-16T05:19:30.781Z,98374.70
2023-05-16T05:22:43.307Z,98370.20
2023-05-16T05:25:55.821Z,98369.82
2023-05-16T05:32:08.564Z,98383.81
2023-05-16T06:00:13.799Z,98366.11
2023-05-16T06:03:26.776Z,98368.73
2023-05-16T06:06:40.334Z,98374.73
2023-05-16T06:09:52.937Z,98373.98
2023-05-16T06:13:05.490Z,98357.91
2023-05-16T06:16:18.094Z,98372.77
2023-05-16T06:19:30.602Z,98360.16
2023-05-16T06:22:43.072Z,98370.63
2023-05-16T06:25:55.770Z,98370.77
2023-05-16T06:29:08.135Z,98377.98
2023-05-16T06:32:21.061Z,98389.13
2023-05-16T06:35:33.585Z,98375.94
2023-05-16T06:38:46.487Z,98381.17
2023-05-16T06:41:59.092Z,98383.38
2023-05-16T06:45:14.011Z,98385.83
2023-05-16T06:48:27.337Z,98384.13
2023-05-16T06:51:40.729Z,98390.86
2023-05-16T06:54:53.358Z,98388.13
2023-05-16T06:58:06.019Z,98385.39
2023-05-16T07:01:18.633Z,98392.41
2023-05-16T07:04:31.334Z,98399.08
2023-05-16T07:07:44.039Z,98389.36
2023-05-16T07:10:56.180Z,98405.30
2023-05-16T07:14:08.478Z,98410.72
2023-05-16T07:17:21.261Z,98421.87
2023-05-16T07:20:33.718Z,98415.20
2023-05-16T07:23:46.072Z,98411.74
2023-05-16T07:26:58.329Z,98415.77
2023-05-16T07:30:11.550Z,98411.59
2023-05-16T07:33:23.683Z,98417.53
2023-05-16T07:36:35.814Z,98414.13
2023-05-16T07:39:48.392Z,98413.78
2023-05-16T07:43:04.060Z,98393.14
2023-05-16T07:46:16.503Z,98403.88
2023-05-16T07:49:28.766Z,98410.60
2023-05-16T07:52:40.876Z,98417.11
2023-05-16T07:55:53.443Z,98417.67
2023-05-16T07:59:06.191Z,98420.88
2023-05-16T08:02:19.179Z,98429.48
2023-05-16T08:05:31.698Z,98443.20
2023-05-16T08:08:44.108Z,98436.38
2023-05-16T08:11:56.393Z,98434.08
2023-05-16T08:15:09.303Z,98426.95
2023-05-16T08:18:23.036Z,98425.83
2023-05-16T08:21:36.440Z,98410.43
2023-05-16T08:24:48.637Z,98414.43
2023-05-16T08:28:02.190Z,98416.58
2023-05-16T08:31:14.428Z,98428.44
2023-05-16T08:34:26.886Z,98438.25
2023-05-16T08:37:39.262Z,98427.94
2023-05-16T08:40:51.625Z,98435.83
2023-05-16T08:44:04.056Z,98433.96
2023-05-16T08:47:24.067Z,98431.62
2023-05-16T08:50:38.622Z,98428.13
2023-05-16T08:53:57.345Z,98426.81
2023-05-16T08:57:10.507Z,98430.20
2023-05-16T09:00:24.945Z,98421.77
2023-05-16T09:03:37.252Z,98420.78
2023-05-16T09:06:49.496Z,98413.13
2023-05-16T09:10:01.722Z,98426.06
2023-05-16T09:13:13.900Z,98431.67
2023-05-16T09:16:27.742Z,98423.06
2023-05-16T09:19:49.096Z,98435.91
2023-05-16T09:23:03.644Z,98436.80
2023-05-16T09:26:16.133Z,98441.70
2023-05-16T09:29:28.413Z,98434.68
2023-05-16T09:32:40.800Z,98428.84
2023-05-16T09:35:53.122Z,98433.66
2023-05-16T09:39:05.912Z,98424.17
2023-05-16T09:42:20.082Z,98428.67
2023-05-16T09:45:32.324Z,98430.02
2023-05-16T09:48:47.477Z,98421.23
2023-05-16T09:51:59.773Z,98413.45
2023-05-16T09:55:15.000Z,98413.94
2023-05-16T09:58:28.162Z,98415.80
2023-05-16T10:01:40.651Z,98401.91
2023-05-16T10:04:52.992Z,98405.23
2023-05-16T10:08:06.674Z,98402.14
2023-05-16T10:11:19.908Z,98394.05
2023-05-16T10:14:33.293Z,98397.78
2023-05-16T10:17:50.477Z,98393.06
2023-05-16T10:21:06.385Z,98390.05
2023-05-16T10:24:25.018Z,98387.26
2023-05-16T10:27:38.451Z,98387.44
2023-05-16T10:30:52.201Z,98397.02
2023-05-16T10:34:05.238Z,98391.42
2023-05-16T10:37:17.842Z,98390.05
2023-05-16T10:40:31.090Z,98390.98
2023-05-16T10:43:44.643Z,98371.34
2023-05-16T10:46:57.047Z,98378.94
2023-05-16T10:50:09.930Z,98371.67
2023-05-16T10:53:28.177Z,98385.69
2023-05-16T10:56:41.208Z,98372.17
2023-05-16T10:59:58.482Z,98382.99
2023-05-16T11:03:23.727Z,98381.81
2023-05-16T11:06:38.045Z,98394.41
2023-05-16T11:10:11.974Z,98395.33
2023-05-16T11:13:28.777Z,98397.80
2023-05-16T11:16:39.898Z,98393.89
2023-05-16T11:19:55.162Z,98386.30
2023-05-16T11:23:31.482Z,98397.43
2023-05-16T11:26:44.078Z,98395.56
2023-05-16T11:29:56.714Z,98398.01
2023-05-16T11:33:09.189Z,98406.19
2023-05-16T11:36:22.702Z,98403.37
2023-05-16T11:39:36.831Z,98396.63
2023-05-16T11:42:52.174Z,98404.74
2023-05-16T11:46:04.790Z,98401.66
2023-05-16T11:49:17.516Z,98409.59
2023-05-16T11:52:30.461Z,98419.17
2023-05-16T11:55:43.166Z,98411.33
2023-05-16T11:58:56.362Z,98414.24
2023-05-16T12:02:11.161Z,98419.70
2023-05-16T12:05:25.652Z,98426.32
2023-05-16T12:08:38.786Z,98419.31
2023-05-16T12:11:51.579Z,98425.14
2023-05-16T12:15:04.099Z,98424.31
2023-05-16T12:18:17.022Z,98420.59
2023-05-16T12:21:29.564Z,98422.27
2023-05-16T12:24:44.979Z,98421.25
2023-05-16T12:27:59.309Z,98422.30
2023-05-16T12:31:29.858Z,98416.27
2023-05-16T12:34:34.274Z,98416.91
2023-05-16T12:37:47.610Z,98422.70
2023-05-16T12:41:05.190Z,98418.16
2023-05-16T12:44:23.772Z,98411.52
2023-05-16T12:47:44.632Z,98414.42
2023-05-16T12:50:57.020Z,98405.32
2023-05-16T12:54:18.824Z,98402.81
2023-05-16T12:57:33.787Z,98405.32
2023-05-16T13:00:46.592Z,98398.88
2023-05-16T13:03:58.790Z,98400.77
2023-05-16T13:07:12.323Z,98399.92
2023-05-16T13:10:26.378Z,98400.75
2023-05-16T13:13:38.757Z,98386.84
2023-05-16T13:16:51.758Z,98395.14
2023-05-16T13:20:05.736Z,98400.31
2023-05-16T13:23:17.776Z,98398.23
2023-05-16T13:26:30.680Z,98389.95
2023-05-16T13:29:42.953Z,98389.53
2023-05-16T13:32:55.460Z,98393.88
2023-05-16T13:36:09.650Z,98389.11
2023-05-16T13:39:22.842Z,98385.80
2023-05-16T13:42:35.095Z,98383.91
2023-05-16T13:45:48.408Z,98381.02
2023-05-16T13:49:01.926Z,98375.83
2023-05-16T13:52:15.152Z,98377.08
2023-05-16T13:55:27.673Z,98375.85
2023-05-16T13:58:49.000Z,98367.57
2023-05-16T14:01:54.655Z,98374.20
2023-05-16T14:05:07.063Z,98373.38
2023-05-16T14:08:19.410Z,98376.09
2023-05-16T14:11:31.619Z,98370.28
2023-05-16T14:14:43.780Z,98376.48
2023-05-16T14:17:56.289Z,98374.40
2023-05-16T14:21:09.253Z,98370.88
2023-05-16T14:24:21.697Z,98375.45
2023-05-16T14:27:34.088Z,98370.28
2023-05-16T14:30:47.981Z,98364.88
2023-05-16T14:34:00.268Z,98362.59
2023-05-16T14:37:13.571Z,98360.11
2023-05-16T14:40:26.010Z,98367.03
2023-05-16T14:43:38.829Z,98365.81
2023-05-16T14:46:52.074Z,98360.64
2023-05-16T14:50:04.327Z,98368.47
2023-05-16T14:53:16.772Z,98372.38
2023-05-16T14:56:29.824Z,98366.77
2023-05-16T14:59:42.519Z,98367.17
2023-05-16T15:02:54.969Z,98377.72
2023-05-16T15:06:08.240Z,98378.56
2023-05-16T15:09:20.959Z,98376.67
2023-05-16T15:12:33.562Z,98376.42
2023-05-16T15:15:45.880Z,98375.58
2023-05-16T15:18:58.975Z,98379.48
2023-05-16T15:22:11.645Z,98375.16
2023-05-16T15:25:24.338Z,98369.95
2023-05-16T15:28:36.473Z,98363.52
2023-05-16T15:31:48.814Z,98356.05
2023-05-16T15:35:01.882Z,98360.00
2023-05-16T15:38:14.194Z,98368.59
2023-05-16T15:44:41.728Z,98370.26
2023-05-16T15:47:54.140Z,98370.44
2023-05-16T15:51:06.599Z,98370.00
2023-05-16T15:54:18.916Z,98371.97
2023-05-16T15:57:31.430Z,98365.20
2023-05-16T16:00:45.995Z,98373.93
2023-05-16T16:03:58.494Z,98377.56
2023-05-16T16:07:11.791Z,98378.32
2023-05-16T16:10:24.001Z,98375.80
2023-05-16T16:13:36.215Z,98374.52
2023-05-16T16:16:48.604Z,98367.72
2023-05-16T16:20:01.597Z,98383.31
2023-05-16T16:23:14.109Z,98378.98
2023-05-16T16:26:26.925Z,98389.62
2023-05-16T16:29:39.229Z,98387.13
2023-05-16T16:32:52.551Z,98385.45
2023-05-16T16:36:05.417Z,98381.52
2023-05-16T16:39:17.859Z,98382.52
2023-05-16T16:42:31.553Z,98377.55
2023-05-16T16:45:44.048Z,98383.91
2023-05-16T16:48:56.520Z,98380.50
2023-05-16T16:52:09.041Z,98386.23
2023-05-16T16:55:21.365Z,98383.85
2023-05-16T16:58:33.925Z,98379.88
2023-05-16T17:01:46.959Z,98381.63
2023-05-16T17:04:59.961Z,98379.03
2023-05-16T17:08:13.443Z,98331.20
2023-05-16T17:11:27.184Z,98369.39
2023-05-16T17:14:39.703Z,98372.64
2023-05-16T17:17:53.385Z,98378.07
2023-05-16T17:21:06.483Z,98373.45
2023-05-16T17:24:19.100Z,98376.02
2023-05-16T17:27:32.124Z,98370.46
2023-05-16T17:30:44.880Z,98372.30
2023-05-16T17:33:57.752Z,98372.30
2023-05-16T17:37:10.784Z,98376.34
2023-05-16T17:40:23.712Z,98374.84
2023-05-16T17:43:37.879Z,98373.36
2023-05-16T17:46:50.563Z,98381.45
2023-05-16T17:50:03.276Z,98388.66
2023-05-16T17:53:16.342Z,98380.17
2023-05-16T17:56:29.344Z,98379.67
2023-05-16T17:59:41.948Z,98374.70
2023-05-16T18:02:54.955Z,98374.94
2023-05-16T18:06:07.813Z,98374.81
2023-05-16T18:09:20.906Z,98369.00
2023-05-16T18:12:34.118Z,98380.87
2023-05-16T18:15:47.233Z,98372.33
2023-05-16T18:19:00.132Z,98375.05
2023-05-16T18:22:14.227Z,98379.74
2023-05-16T18:25:28.159Z,98380.87
2023-05-16T18:28:41.127Z,98387.86
2023-05-16T18:31:54.302Z,98387.94
2023-05-16T18:35:07.376Z,98385.50
2023-05-16T18:38:28.731Z,98379.64
2023-05-16T18:41:35.216Z,98377.72
2023-05-16T18:44:47.931Z,98382.09
2023-05-16T18:48:00.745Z,98383.45
2023-05-16T18:51:13.382Z,98391.36
2023-05-16T18:54:26.164Z,98394.70
2023-05-16T18:57:39.315Z,98394.84
2023-05-16T19:00:53.027Z,98399.53
2023-05-16T19:04:05.698Z,98393.33
2023-05-16T19:07:18.901Z,98390.52
2023-05-16T19:10:32.393Z,98385.00
2023-05-16T19:13:45.114Z,98394.52
2023-05-16T19:16:57.826Z,98389.13
2023-05-16T19:20:11.870Z,98395.69
2023-05-16T19:23:24.828Z,98395.88
2023-05-16T19:26:37.568Z,98397.59
2023-05-16T19:29:50.159Z,98396.35
2023-05-16T19:33:02.896Z,98398.36
2023-05-16T19:36:16.268Z,98392.51
2023-05-16T19:39:28.969Z,98403.38
2023-05-16T19:42:41.481Z,98398.03
2023-05-16T19:45:54.080Z,98401.22
2023-05-16T19:49:06.670Z,98399.61
2023-05-16T19:52:19.488Z,98400.27
2023-05-16T19:55:32.342Z,98401.63
2023-05-16T19:58:47.927Z,98398.95
2023-05-16T20:02:00.440Z,98398.95
2023-05-16T20:05:15.070Z,98396.80
2023-05-16T20:08:27.905Z,98391.64
2023-05-16T20:11:40.794Z,98388.78
2023-05-16T20:14:53.483Z,98396.80
2023-05-16T20:18:06.642Z,98387.65
2023-05-16T20:21:20.025Z,98381.66
2023-05-16T20:24:32.700Z,98369.03
2023-05-16T20:27:46.700Z,98383.66
2023-05-16T20:30:59.939Z,98382.02
2023-05-16T20:34:12.570Z,98371.01
2023-05-16T20:37:27.003Z,98376.34
2023-05-16T20:40:40.018Z,98372.66
2023-05-16T20:43:52.473Z,98371.70
2023-05-16T20:47:05.046Z,98368.01
2023-05-16T20:50:18.775Z,98368.40
2023-05-16T20:53:31.397Z,98371.55
2023-05-16T20:56:44.007Z,98361.71
2023-05-16T20:59:56.535Z,98352.69
2023-05-16T21:03:09.163Z,98356.05
2023-05-16T21:06:21.916Z,98348.70
2023-05-16T21:09:34.729Z,98349.36
2023-05-16T21:12:47.362Z,98344.38
2023-05-16T21:16:00.048Z,98343.75
2023-05-16T21:19:12.749Z,98342.91
2023-05-16T21:22:25.674Z,98334.72
2023-05-16T21:25:38.650Z,98326.06
2023-05-16T21:28:55.490Z,98328.22
2023-05-16T21:32:06.083Z,98323.06
2023-05-16T21:35:18.806Z,98323.94
2023-05-16T21:38:31.614Z,98333.77
2023-05-16T21:41:44.342Z,98327.11
2023-05-16T21:44:56.856Z,98324.27
2023-05-16T21:48:09.840Z,98318.09
2023-05-16T21:51:22.925Z,98312.75
2023-05-16T21:54:36.963Z,98314.43
2023-05-16T21:57:49.616Z,98308.73
2023-05-16T22:01:02.178Z,98303.06
2023-05-16T22:04:16.699Z,98305.91
2023-05-16T22:07:29.635Z,98292.13
2023-05-16T22:10:42.335Z,98301.09
2023-05-16T22:13:55.161Z,98314.40
2023-05-16T22:17:07.868Z,98309.75
2023-05-16T22:20:21.780Z,98306.88
2023-05-16T22:23:34.180Z,98306.39
2023-05-16T22:26:46.575Z,98305.55
2023-05-16T22:29:59.087Z,98307.38
2023-05-16T22:33:11.828Z,98313.08
2023-05-16T22:36:24.273Z,98303.91
2023-05-16T22:39:36.752Z,98301.75
2023-05-16T22:42:49.415Z,98302.70
2023-05-16T22:46:03.300Z,98305.91
2023-05-16T22:49:16.542Z,98295.24
2023-05-16T22:52:29.377Z,98303.73
2023-05-16T22:55:41.886Z,98301.09
2023-05-16T22:58:54.426Z,98294.80
2023-05-16T23:02:06.905Z,98301.42
2023-05-16T23:05:19.528Z,98299.73
2023-05-16T23:08:32.188Z,98301.39
2023-05-16T23:11:44.757Z,98296.41
2023-05-16T23:14:58.372Z,98306.75
2023-05-16T23:18:11.796Z,98304.92
2023-05-16T23:21:24.501Z,98306.94
2023-05-16T23:24:37.051Z,98295.45
2023-05-16T23:27:49.499Z,98269.83
2023-05-16T23:31:02.135Z,98289.77
2023-05-16T23:34:14.604Z,98286.07
2023-05-16T23:37:27.054Z,98282.92
2023-05-16T23:40:39.541Z,98284.64
2023-05-16T23:43:52.290Z,98289.61
2023-05-16T23:47:07.904Z,98284.61
2023-05-16T23:50:21.531Z,98294.73
2023-05-16T23:53:34.163Z,98291.77
2023-05-16T23:56:46.877Z,98289.94
2023-05-16T23:59:59.536Z,98286.07
